Time;durP1;ratioP1;P1;durP2;ratioP2;P2;SDS_P1;SDS_P2;PMS_P1;PMS_P2;Temp;Humidity;BMP_temperature;BMP_pressure;BME280_temperature;BME280_humidity;BME280_pressure;Samples;Min_cycle;Max_cycle;Signal;HPM_P1;HPM_P2
2023/09/24 00:00:27;;;;;;;7.13;4.05;;;13.30;94.20;;;;;;5041334;28;20476;-76
2023/09/24 00:02:52;;;;;;;6.20;3.88;;;13.20;94.40;;;;;;5057237;28;20017;-76
2023/09/24 00:05:18;;;;;;;8.00;4.40;;;13.00;94.70;;;;;;5074955;28;20097;-76
2023/09/24 00:07:44;;;;;;;7.88;4.03;;;12.90;95.20;;;;;;5057784;28;20044;-76
2023/09/24 00:10:10;;;;;;;7.38;3.97;;;13.00;95.50;;;;;;5075148;28;20039;-76
2023/09/24 00:12:36;;;;;;;6.30;3.40;;;13.00;95.30;;;;;;5057594;28;20040;-76
2023/09/24 00:15:01;;;;;;;7.35;3.75;;;13.10;95.30;;;;;;5041149;28;20017;-76
2023/09/24 00:17:27;;;;;;;7.30;3.78;;;13.10;95.20;;;;;;5057594;28;20029;-76
2023/09/24 00:19:53;;;;;;;6.82;4.13;;;13.20;95.20;;;;;;5057543;28;20489;-76
2023/09/24 00:22:18;;;;;;;6.97;3.97;;;13.20;95.10;;;;;;5075050;28;20021;-76
2023/09/24 00:24:45;;;;;;;8.55;3.67;;;13.20;95.00;;;;;;5075081;28;20519;-76
2023/09/24 00:27:12;;;;;;;5.65;3.55;;;13.20;95.00;;;;;;5057278;28;20021;-76
2023/09/24 00:29:37;;;;;;;9.40;4.07;;;13.30;94.90;;;;;;5040812;28;20027;-76
2023/09/24 00:32:03;;;;;;;6.07;4.10;;;13.30;94.90;;;;;;5040609;28;20043;-76
2023/09/24 00:34:28;;;;;;;7.03;3.78;;;13.40;94.90;;;;;;5040495;28;20021;-76
2023/09/24 00:36:54;;;;;;;9.23;3.85;;;13.40;94.80;;;;;;5040572;28;20025;-76
2023/09/24 00:39:19;;;;;;;7.72;3.97;;;13.40;94.80;;;;;;5074649;28;20025;-76
2023/09/24 00:41:46;;;;;;;6.53;3.90;;;13.40;94.70;;;;;;5057134;28;20489;-76
2023/09/24 00:44:15;;;;;;;6.45;3.85;;;13.40;94.70;;;;;;5057121;28;20021;-76
2023/09/24 00:46:44;;;;;;;8.30;3.90;;;13.30;94.80;;;;;;5040245;28;20033;-76
2023/09/24 00:49:15;;;;;;;7.10;4.50;;;13.40;95.20;;;;;;5074379;28;20036;-76
2023/09/24 00:51:41;;;;;;;6.95;4.45;;;13.30;94.90;;;;;;5056413;28;20044;-76
2023/09/24 00:54:08;;;;;;;7.63;3.97;;;13.30;94.90;;;;;;5074390;28;20025;-76
2023/09/24 00:56:35;;;;;;;8.65;4.32;;;13.30;94.90;;;;;;5074366;28;20100;-77
2023/09/24 00:59:02;;;;;;;10.23;4.05;;;13.30;94.90;;;;;;5056943;28;20022;-76
2023/09/24 01:01:29;;;;;;;7.18;4.07;;;13.40;94.80;;;;;;5040077;28;20036;-77
2023/09/24 01:03:55;;;;;;;7.20;4.20;;;13.40;94.80;;;;;;5074215;28;20029;-76
2023/09/24 01:06:21;;;;;;;6.43;3.85;;;13.40;94.70;;;;;;5040009;28;20496;-77
2023/09/24 01:08:48;;;;;;;7.03;4.55;;;13.50;94.70;;;;;;5040056;28;20028;-76
2023/09/24 01:11:14;;;;;;;8.20;4.50;;;13.40;94.60;;;;;;5074028;28;20029;-76
2023/09/24 01:13:45;;;;;;;7.55;4.25;;;13.40;94.50;;;;;;5056576;28;20031;-77
2023/09/24 01:16:11;;;;;;;7.03;4.50;;;13.40;94.60;;;;;;5056382;28;20021;-77
2023/09/24 01:18:39;;;;;;;6.93;4.30;;;13.40;94.90;;;;;;5056298;28;20009;-76
2023/09/24 01:21:17;;;;;;;8.45;4.18;;;13.40;94.60;;;;;;5056212;28;20021;-77
2023/09/24 01:23:45;;;;;;;10.73;4.30;;;13.30;94.60;;;;;;5056306;28;20029;-76
2023/09/24 01:26:12;;;;;;;6.57;4.55;;;13.30;94.60;;;;;;5056214;28;20048;-76
2023/09/24 01:28:39;;;;;;;7.20;4.22;;;13.30;94.60;;;;;;5056062;28;20032;-76
2023/09/24 01:31:06;;;;;;;7.07;4.38;;;13.30;94.60;;;;;;5055992;28;20028;-77
2023/09/24 01:33:31;;;;;;;8.52;4.28;;;13.30;94.50;;;;;;5073551;28;20049;-76
2023/09/24 01:35:58;;;;;;;8.45;4.22;;;13.30;94.50;;;;;;5056159;28;20096;-77
2023/09/24 01:38:24;;;;;;;6.07;4.20;;;13.40;94.40;;;;;;5073552;28;20021;-77
2023/09/24 01:40:51;;;;;;;7.10;4.32;;;13.40;94.40;;;;;;5073594;28;20029;-77
2023/09/24 01:43:18;;;;;;;7.05;4.68;;;13.30;94.30;;;;;;5073665;28;20025;-77
2023/09/24 01:45:44;;;;;;;7.35;4.88;;;13.20;94.00;;;;;;5073480;28;20017;-76
2023/09/24 01:48:10;;;;;;;9.32;4.68;;;13.10;94.10;;;;;;5055945;28;20064;-76
2023/09/24 01:50:36;;;;;;;9.18;4.32;;;13.00;94.20;;;;;;5022502;28;20057;-77
2023/09/24 01:53:03;;;;;;;8.18;5.05;;;12.90;94.40;;;;;;5073502;28;20037;-76
2023/09/24 01:55:29;;;;;;;8.15;5.25;;;12.90;94.20;;;;;;5073293;28;20036;-76
2023/09/24 01:57:55;;;;;;;7.10;4.72;;;12.80;94.50;;;;;;5073280;28;20112;-76
2023/09/24 02:00:25;;;;;;;9.30;4.93;;;12.80;94.60;;;;;;5073226;28;20021;-76
2023/09/24 02:02:59;;;;;;;9.93;5.25;;;12.70;94.60;;;;;;5039686;28;20029;-76
2023/09/24 02:05:35;;;;;;;7.28;5.00;;;12.80;94.70;;;;;;5073236;28;20051;-76
2023/09/24 02:08:09;;;;;;;10.85;4.82;;;12.80;94.80;;;;;;5073246;28;20021;-77
2023/09/24 02:10:38;;;;;;;7.80;4.85;;;12.80;94.70;;;;;;5039544;28;20119;-77
2023/09/24 02:13:04;;;;;;;10.18;4.80;;;12.80;94.70;;;;;;5039661;28;20033;-76
2023/09/24 02:15:30;;;;;;;8.88;5.32;;;12.70;94.60;;;;;;5055364;28;20028;-76
2023/09/24 02:17:56;;;;;;;7.35;5.45;;;12.80;94.60;;;;;;5073081;28;20029;-77
2023/09/24 02:20:25;;;;;;;13.05;5.65;;;12.80;94.10;;;;;;5073020;28;20037;-76
2023/09/24 02:22:53;;;;;;;9.60;5.40;;;12.60;94.40;;;;;;5055829;28;20025;-77
2023/09/24 02:25:21;;;;;;;10.90;5.80;;;12.40;95.00;;;;;;5073013;28;20025;-77
2023/09/24 02:27:53;;;;;;;10.30;5.88;;;12.40;95.20;;;;;;5058173;28;20037;-77
2023/09/24 02:30:20;;;;;;;9.65;5.60;;;12.30;95.40;;;;;;5059354;28;20480;-77
2023/09/24 02:32:46;;;;;;;10.55;6.13;;;12.30;95.20;;;;;;5077001;28;20077;-77
2023/09/24 02:35:13;;;;;;;9.75;6.25;;;12.30;95.20;;;;;;5076971;28;20060;-77
2023/09/24 02:37:40;;;;;;;11.50;6.88;;;12.30;95.40;;;;;;5042807;28;20055;-77
2023/09/24 02:40:19;;;;;;;12.13;6.40;;;12.20;95.00;;;;;;5059262;28;20029;-76
2023/09/24 02:42:48;;;;;;;10.48;6.40;;;12.20;95.00;;;;;;5044167;28;20100;-77
2023/09/24 02:45:15;;;;;;;10.68;6.63;;;12.10;95.50;;;;;;5076891;28;20403;-77
2023/09/24 02:47:42;;;;;;;10.43;6.35;;;12.10;95.70;;;;;;5076844;28;20025;-76
2023/09/24 02:50:13;;;;;;;12.02;6.50;;;12.20;95.70;;;;;;5076618;28;20529;-76
2023/09/24 02:52:42;;;;;;;12.50;6.10;;;12.20;95.70;;;;;;5076614;28;20037;-76
2023/09/24 02:55:15;;;;;;;9.48;5.82;;;12.30;95.60;;;;;;5059648;28;20029;-77
2023/09/24 02:57:41;;;;;;;;;;;12.30;95.50;;;;;;5059526;28;20078;-76
2023/09/24 03:00:15;;;;;;;9.18;5.55;;;12.40;95.40;;;;;;5076433;28;19909;-77
2023/09/24 03:02:41;;;;;;;9.10;5.53;;;12.30;95.40;;;;;;5058878;28;20021;-76
2023/09/24 03:05:12;;;;;;;10.20;5.70;;;12.40;95.40;;;;;;5042397;28;20032;-76
2023/09/24 03:07:40;;;;;;;10.27;6.07;;;12.30;95.30;;;;;;5076363;28;20036;-76
2023/09/24 03:10:07;;;;;;;9.27;5.70;;;12.30;95.30;;;;;;5059088;28;20258;-76
2023/09/24 03:12:34;;;;;;;8.13;5.60;;;12.30;95.20;;;;;;5076265;28;20048;-76
2023/09/24 03:15:01;;;;;;;11.65;6.25;;;12.20;95.00;;;;;;5076120;28;20021;-77
2023/09/24 03:17:27;;;;;;;10.38;5.70;;;12.20;95.00;;;;;;5076301;28;20076;-77
2023/09/24 03:19:53;;;;;;;9.52;5.20;;;12.20;95.10;;;;;;5042134;28;20021;-77
2023/09/24 03:22:20;;;;;;;8.88;5.80;;;12.20;95.00;;;;;;5058527;28;20048;-76
2023/09/24 03:24:47;;;;;;;11.70;5.72;;;12.20;94.90;;;;;;5058713;28;20032;-77
2023/09/24 03:27:14;;;;;;;9.50;5.68;;;12.20;94.80;;;;;;5042157;28;20029;-77
2023/09/24 03:29:40;;;;;;;10.52;5.93;;;12.20;94.90;;;;;;5058613;28;20029;-76
2023/09/24 03:32:05;;;;;;;9.00;5.85;;;12.10;94.90;;;;;;5058453;28;20055;-76
2023/09/24 03:34:31;;;;;;;9.50;5.68;;;12.10;94.90;;;;;;5075921;28;20029;-77
2023/09/24 03:36:56;;;;;;;9.32;5.63;;;12.10;94.80;;;;;;5058299;28;20185;-77
2023/09/24 03:39:24;;;;;;;8.13;5.32;;;12.00;95.00;;;;;;5040199;28;20043;-77
2023/09/24 03:41:50;;;;;;;11.88;5.85;;;12.00;95.30;;;;;;5075972;28;20094;-76
2023/09/24 03:44:15;;;;;;;8.23;4.90;;;12.10;95.30;;;;;;5058114;28;20052;-76
2023/09/24 03:46:41;;;;;;;10.60;5.43;;;12.10;95.20;;;;;;5058250;28;20089;-76
2023/09/24 03:49:07;;;;;;;9.80;5.13;;;12.20;95.10;;;;;;5075700;28;20025;-77
2023/09/24 03:51:32;;;;;;;9.35;4.75;;;12.20;94.90;;;;;;5075490;28;20064;-77
2023/09/24 03:53:58;;;;;;;8.02;4.88;;;12.30;94.80;;;;;;5057899;28;20037;-76
2023/09/24 03:56:24;;;;;;;8.18;4.40;;;12.30;94.70;;;;;;5058171;28;20047;-77
2023/09/24 03:58:50;;;;;;;7.93;4.88;;;12.30;94.60;;;;;;5057950;28;20033;-76
2023/09/24 04:01:17;;;;;;;6.97;4.30;;;12.40;94.50;;;;;;5057908;28;20059;-77
2023/09/24 04:03:43;;;;;;;5.75;4.30;;;12.40;94.30;;;;;;5058198;28;20022;-76
2023/09/24 04:06:10;;;;;;;7.03;4.38;;;12.30;94.10;;;;;;5075349;28;20033;-77
2023/09/24 04:08:36;;;;;;;8.32;4.97;;;12.40;94.10;;;;;;5057644;28;20021;-76
2023/09/24 04:11:06;;;;;;;6.80;4.60;;;12.30;94.00;;;;;;5075258;28;20071;-77
2023/09/24 04:13:32;;;;;;;6.45;4.50;;;12.30;93.90;;;;;;5057611;28;20021;-77
2023/09/24 04:16:08;;;;;;;8.52;4.72;;;12.30;93.90;;;;;;5075158;28;20033;-77
2023/09/24 04:18:35;;;;;;;7.38;4.25;;;12.30;93.80;;;;;;5057490;28;20021;-76
2023/09/24 04:21:01;;;;;;;9.85;4.50;;;12.30;93.80;;;;;;5075129;28;20067;-77
2023/09/24 04:23:27;;;;;;;7.43;4.93;;;12.20;93.80;;;;;;5075165;28;20396;-76
2023/09/24 04:25:54;;;;;;;8.48;4.68;;;12.20;93.60;;;;;;5057430;28;20025;-77
2023/09/24 04:28:20;;;;;;;6.65;4.38;;;12.10;93.70;;;;;;5075021;28;20025;-76
2023/09/24 04:30:46;;;;;;;7.55;4.55;;;12.00;93.90;;;;;;5057097;28;20014;-76
2023/09/24 04:33:12;;;;;;;11.45;4.63;;;11.90;93.80;;;;;;5040589;28;20427;-77
2023/09/24 04:35:38;;;;;;;7.97;4.70;;;11.90;94.20;;;;;;5057212;28;20055;-76
2023/09/24 04:38:06;;;;;;;8.57;4.53;;;12.00;94.20;;;;;;5057211;28;20388;-76
2023/09/24 04:40:33;;;;;;;7.00;4.90;;;12.00;94.20;;;;;;5057511;28;20017;-76
2023/09/24 04:42:59;;;;;;;8.65;4.93;;;11.90;93.90;;;;;;5056943;28;20024;-76
2023/09/24 04:45:25;;;;;;;7.38;4.28;;;11.80;94.20;;;;;;5057134;28;20053;-76
2023/09/24 04:47:50;;;;;;;6.18;4.20;;;11.90;94.40;;;;;;5056950;28;20059;-77
2023/09/24 04:50:17;;;;;;;5.95;4.35;;;11.80;94.30;;;;;;5056283;28;20032;-78
2023/09/24 04:52:45;;;;;;;6.90;4.35;;;11.80;94.40;;;;;;5057056;28;20021;-76
2023/09/24 04:55:11;;;;;;;7.57;4.18;;;11.90;94.70;;;;;;5057251;28;20021;-77
2023/09/24 04:57:37;;;;;;;7.30;4.30;;;11.90;94.30;;;;;;5040307;28;20021;-77
2023/09/24 05:00:03;;;;;;;7.07;4.32;;;11.90;94.30;;;;;;5040327;28;20444;-77
2023/09/24 05:02:29;;;;;;;9.25;4.35;;;11.80;94.10;;;;;;5056736;28;20025;-77
2023/09/24 05:04:54;;;;;;;7.20;4.15;;;11.70;94.30;;;;;;5056676;28;20025;-76
2023/09/24 05:07:20;;;;;;;6.05;3.80;;;11.70;94.30;;;;;;5056721;28;20025;-77
2023/09/24 05:09:45;;;;;;;6.50;3.75;;;11.80;94.50;;;;;;5074146;28;20029;-77
2023/09/24 05:12:13;;;;;;;6.25;3.85;;;11.80;94.50;;;;;;5039935;28;20041;-76
2023/09/24 05:14:39;;;;;;;7.32;4.35;;;11.90;94.40;;;;;;5056616;28;20024;-77
2023/09/24 05:17:05;;;;;;;6.00;4.15;;;11.90;94.30;;;;;;5074124;28;20029;-77
2023/09/24 05:19:31;;;;;;;6.82;3.53;;;12.00;94.10;;;;;;5074045;28;20024;-76
2023/09/24 05:21:56;;;;;;;8.45;4.35;;;11.90;94.00;;;;;;5039838;28;20100;-76
2023/09/24 05:24:22;;;;;;;5.50;3.88;;;11.90;93.90;;;;;;5074032;28;20040;-77
2023/09/24 05:26:48;;;;;;;6.93;4.50;;;11.90;93.80;;;;;;5056290;28;20036;-76
2023/09/24 05:29:13;;;;;;;7.15;4.03;;;11.90;94.20;;;;;;5056418;28;20396;-77
2023/09/24 05:31:39;;;;;;;8.43;4.00;;;11.90;93.70;;;;;;5073663;28;20039;-76
2023/09/24 05:34:05;;;;;;;5.60;3.92;;;11.90;93.70;;;;;;5056185;28;20032;-76
2023/09/24 05:36:31;;;;;;;7.07;3.80;;;11.90;93.80;;;;;;5073681;28;20067;-77
2023/09/24 05:38:58;;;;;;;6.45;3.80;;;12.00;93.80;;;;;;5039547;28;20201;-77
2023/09/24 05:41:24;;;;;;;7.63;3.90;;;11.90;93.60;;;;;;5073549;28;20029;-77
2023/09/24 05:43:50;;;;;;;6.55;3.80;;;11.80;93.60;;;;;;5056090;28;20029;-77
2023/09/24 05:46:15;;;;;;;7.13;3.60;;;11.70;93.60;;;;;;5055878;28;20061;-76
2023/09/24 05:48:41;;;;;;;6.97;3.97;;;11.60;93.70;;;;;;5039253;28;20044;-77
2023/09/24 05:51:07;;;;;;;6.65;4.05;;;11.60;93.90;;;;;;5055628;28;20064;-76
2023/09/24 05:53:33;;;;;;;7.18;3.75;;;11.60;93.90;;;;;;5055870;28;20029;-76
2023/09/24 05:56:00;;;;;;;7.72;3.53;;;11.60;94.00;;;;;;5039404;28;20043;-77
2023/09/24 05:58:26;;;;;;;11.05;3.85;;;11.50;94.10;;;;;;5055890;28;20052;-77
2023/09/24 06:00:56;;;;;;;9.05;4.30;;;11.50;94.10;;;;;;5072845;28;20029;-76
2023/09/24 06:03:22;;;;;;;7.82;3.72;;;11.50;94.10;;;;;;5055555;28;20028;-76
2023/09/24 06:05:47;;;;;;;8.80;4.10;;;11.50;94.20;;;;;;5055816;28;20424;-76
2023/09/24 06:08:13;;;;;;;7.85;4.03;;;11.50;94.30;;;;;;5073252;28;20029;-77
2023/09/24 06:10:46;;;;;;;6.68;4.47;;;11.50;94.50;;;;;;5055557;28;20060;-76
2023/09/24 06:13:13;;;;;;;;;;;11.60;94.50;;;;;;5056144;28;20029;-76
2023/09/24 06:15:40;;;;;;;6.28;3.58;;;11.50;94.50;;;;;;5055444;28;19904;-77
2023/09/24 06:18:06;;;;;;;7.30;3.88;;;11.50;94.60;;;;;;5055423;28;20025;-77
2023/09/24 06:20:31;;;;;;;6.75;4.18;;;11.50;94.70;;;;;;5055460;28;20086;-77
2023/09/24 06:22:57;;;;;;;8.63;4.22;;;11.60;94.80;;;;;;5039013;28;20096;-77
2023/09/24 06:25:24;;;;;;;7.85;4.00;;;11.60;94.90;;;;;;5055527;28;20021;-77
2023/09/24 06:27:49;;;;;;;8.50;3.40;;;11.60;95.10;;;;;;5073043;28;20032;-77
2023/09/24 06:30:15;;;;;;;7.18;3.95;;;11.60;95.20;;;;;;5055397;28;20037;-77
2023/09/24 06:32:41;;;;;;;7.47;4.65;;;11.60;95.30;;;;;;5072960;28;20071;-77
2023/09/24 06:35:07;;;;;;;7.60;4.35;;;11.60;95.60;;;;;;5038848;28;20032;-77
2023/09/24 06:37:32;;;;;;;8.38;4.72;;;11.70;95.60;;;;;;5072895;28;20384;-77
2023/09/24 06:39:58;;;;;;;8.43;4.20;;;11.70;95.70;;;;;;5038870;28;20028;-77
2023/09/24 06:42:25;;;;;;;9.05;4.22;;;11.70;95.90;;;;;;5072955;28;20083;-77
2023/09/24 06:44:50;;;;;;;9.98;4.13;;;11.70;96.00;;;;;;5038831;28;20037;-77
2023/09/24 06:47:16;;;;;;;8.30;4.07;;;11.70;96.10;;;;;;5055163;28;20092;-76
2023/09/24 06:49:42;;;;;;;8.98;4.20;;;11.70;96.20;;;;;;5072848;28;20025;-77
2023/09/24 06:52:08;;;;;;;7.70;4.43;;;11.80;96.40;;;;;;5072455;28;20052;-77
2023/09/24 06:54:34;;;;;;;9.18;4.68;;;11.80;96.40;;;;;;5055156;28;20036;-77
2023/09/24 06:56:59;;;;;;;8.75;4.70;;;11.80;96.50;;;;;;5055150;28;20021;-77
2023/09/24 06:59:25;;;;;;;6.10;4.30;;;11.90;96.60;;;;;;5038542;28;20531;-77
2023/09/24 07:01:53;;;;;;;13.88;4.60;;;11.90;96.90;;;;;;5055132;28;20032;-76
2023/09/24 07:04:18;;;;;;;8.48;4.90;;;12.00;96.60;;;;;;5072617;28;20058;-77
2023/09/24 07:06:44;;;;;;;8.15;4.38;;;12.00;96.90;;;;;;5038833;28;20033;-77
2023/09/24 07:09:10;;;;;;;8.55;4.55;;;12.10;96.60;;;;;;5055101;28;20037;-76
2023/09/24 07:11:38;;;;;;;7.70;4.53;;;12.10;97.20;;;;;;5055000;28;20104;-77
2023/09/24 07:14:05;;;;;;;10.45;4.80;;;12.10;96.80;;;;;;5057880;28;20017;-80
2023/09/24 07:16:32;;;;;;;9.75;4.32;;;12.20;96.90;;;;;;5058817;28;20031;-79
2023/09/24 07:18:58;;;;;;;7.38;3.90;;;12.20;96.90;;;;;;5076351;28;20021;-78
2023/09/24 07:21:28;;;;;;;8.27;4.60;;;12.20;96.90;;;;;;5076249;28;20021;-79
2023/09/24 07:23:58;;;;;;;8.43;4.13;;;12.20;97.00;;;;;;5076235;28;20460;-79
2023/09/24 07:26:26;;;;;;;13.07;4.97;;;12.20;97.10;;;;;;5076198;28;20033;-79
2023/09/24 07:28:52;;;;;;;8.38;4.60;;;12.30;97.10;;;;;;5076063;28;20445;-78
2023/09/24 07:31:21;;;;;;;7.88;4.43;;;12.40;96.90;;;;;;5075941;28;20029;-78
2023/09/24 07:33:52;;;;;;;9.73;4.35;;;12.40;97.00;;;;;;5075845;28;20067;-79
2023/09/24 07:36:19;;;;;;;7.03;4.03;;;12.60;96.90;;;;;;5058180;28;20045;-78
2023/09/24 07:38:45;;;;;;;7.15;4.18;;;12.60;97.10;;;;;;5058285;28;20495;-77
2023/09/24 07:41:11;;;;;;;9.05;3.97;;;12.70;97.10;;;;;;5058146;28;20017;-77
2023/09/24 07:43:38;;;;;;;10.50;4.82;;;12.80;97.00;;;;;;5075782;28;20092;-77
2023/09/24 07:46:05;;;;;;;10.20;4.65;;;12.90;97.00;;;;;;5041424;28;20024;-78
2023/09/24 07:48:31;;;;;;;9.15;4.43;;;13.00;97.20;;;;;;5041569;28;20029;-77
2023/09/24 07:50:58;;;;;;;6.38;4.55;;;13.10;97.10;;;;;;5075363;28;20543;-77
2023/09/24 07:53:24;;;;;;;8.82;4.78;;;13.20;97.30;;;;;;5057728;28;20039;-77
2023/09/24 07:56:03;;;;;;;7.68;4.28;;;13.20;97.20;;;;;;5041423;28;20044;-77
2023/09/24 07:58:30;;;;;;;8.05;4.18;;;13.30;96.90;;;;;;5075593;28;20025;-77
2023/09/24 08:01:11;;;;;;;11.45;4.28;;;13.40;96.90;;;;;;5057772;28;20021;-78
2023/09/24 08:03:37;;;;;;;8.10;4.40;;;13.50;97.00;;;;;;5075665;28;20020;-77
2023/09/24 08:06:04;;;;;;;7.45;3.97;;;13.60;96.90;;;;;;5075294;28;20051;-77
2023/09/24 08:08:31;;;;;;;8.23;4.38;;;13.60;96.80;;;;;;5075292;28;20051;-78
2023/09/24 08:10:57;;;;;;;9.00;5.05;;;13.70;96.70;;;;;;5075273;28;20021;-77
2023/09/24 08:13:23;;;;;;;8.98;4.70;;;13.90;96.80;;;;;;5075230;28;20021;-77
2023/09/24 08:15:48;;;;;;;11.77;4.63;;;14.00;96.70;;;;;;5075153;28;20021;-78
2023/09/24 08:18:15;;;;;;;8.00;4.78;;;14.10;96.60;;;;;;5075194;28;20017;-77
2023/09/24 08:20:41;;;;;;;12.52;6.10;;;14.10;96.20;;;;;;5057530;28;20036;-78
2023/09/24 08:23:07;;;;;;;9.38;5.00;;;14.20;96.20;;;;;;5057482;28;20055;-78
2023/09/24 08:25:33;;;;;;;8.88;5.63;;;14.30;95.80;;;;;;5056625;28;20044;-78
2023/09/24 08:28:00;;;;;;;13.77;6.60;;;14.40;95.50;;;;;;5057271;28;20128;-78
2023/09/24 08:30:30;;;;;;;13.75;8.73;;;14.40;95.80;;;;;;5074820;28;20028;-77
2023/09/24 08:32:56;;;;;;;16.90;10.00;;;14.40;95.70;;;;;;5057237;28;20454;-78
2023/09/24 08:35:22;;;;;;;25.60;15.23;;;14.60;96.10;;;;;;5040685;28;20021;-77
2023/09/24 08:37:51;;;;;;;7.95;4.63;;;14.70;96.00;;;;;;5057251;28;20029;-77
2023/09/24 08:40:17;;;;;;;8.50;5.40;;;14.90;95.90;;;;;;5057019;28;20025;-77
2023/09/24 08:42:49;;;;;;;6.45;4.15;;;14.90;95.40;;;;;;5040485;28;20083;-78
2023/09/24 08:45:18;;;;;;;7.43;4.10;;;15.00;95.40;;;;;;5056980;28;20021;-77
2023/09/24 08:47:45;;;;;;;5.63;3.50;;;15.00;95.00;;;;;;5074548;28;20271;-78
2023/09/24 08:50:11;;;;;;;6.20;3.53;;;15.10;95.20;;;;;;5056896;28;20013;-78
2023/09/24 08:52:39;;;;;;;8.50;4.10;;;15.30;95.20;;;;;;5056638;28;20052;-77
2023/09/24 08:55:06;;;;;;;8.38;5.00;;;15.40;94.90;;;;;;5040477;28;20021;-77
2023/09/24 08:57:36;;;;;;;4.97;3.10;;;15.50;94.50;;;;;;5056660;28;20017;-77
2023/09/24 09:00:06;;;;;;;6.65;3.80;;;15.60;94.40;;;;;;5040258;28;20032;-78
2023/09/24 09:02:32;;;;;;;5.53;2.28;;;15.70;94.40;;;;;;5056691;28;20088;-78
2023/09/24 09:04:58;;;;;;;6.30;2.50;;;15.80;93.90;;;;;;5056658;28;20021;-78
2023/09/24 09:07:23;;;;;;;5.63;2.53;;;15.80;93.40;;;;;;5074198;28;20079;-77
2023/09/24 09:09:55;;;;;;;4.97;2.47;;;15.90;93.00;;;;;;5056492;28;20025;-77
2023/09/24 09:12:22;;;;;;;5.85;2.80;;;16.00;93.50;;;;;;5056385;28;20127;-78
2023/09/24 09:14:48;;;;;;;20.15;12.05;;;16.10;92.40;;;;;;5073957;28;20080;-78
2023/09/24 09:17:14;;;;;;;13.38;8.60;;;16.10;93.00;;;;;;5056414;28;20507;-77
2023/09/24 09:19:48;;;;;;;4.38;2.53;;;16.20;92.00;;;;;;5039911;28;20092;-77
2023/09/24 09:22:25;;;;;;;7.63;4.93;;;16.30;92.10;;;;;;5056234;28;20036;-77
2023/09/24 09:25:11;;;;;;;6.25;3.65;;;16.30;93.00;;;;;;5039795;28;20029;-76
2023/09/24 09:27:44;;;;;;;4.18;2.25;;;16.50;92.00;;;;;;5056160;28;20040;-77
2023/09/24 09:30:17;;;;;;;3.53;1.90;;;16.60;92.00;;;;;;5055958;28;20047;-77
2023/09/24 09:32:44;;;;;;;7.35;3.30;;;16.70;91.60;;;;;;5073798;28;20017;-74
2023/09/24 09:35:14;;;;;;;6.05;3.10;;;16.80;91.20;;;;;;5056227;28;20035;-74
2023/09/24 09:37:41;;;;;;;2.53;1.77;;;16.90;91.40;;;;;;5056150;28;20018;-73
2023/09/24 09:40:08;;;;;;;9.13;4.70;;;17.00;91.10;;;;;;5056242;28;20017;-73
2023/09/24 09:42:36;;;;;;;4.63;2.10;;;17.00;90.40;;;;;;5056067;28;20044;-76
2023/09/24 09:45:07;;;;;;;8.27;3.72;;;17.00;90.30;;;;;;5055815;28;20031;-76
2023/09/24 09:47:34;;;;;;;4.22;2.47;;;17.10;90.50;;;;;;5055976;28;20070;-77
2023/09/24 09:50:00;;;;;;;9.50;4.35;;;17.20;90.50;;;;;;5039618;28;20025;-77
2023/09/24 09:52:43;;;;;;;7.45;4.82;;;17.40;90.40;;;;;;5055693;28;20099;-76
2023/09/24 09:55:09;;;;;;;7.63;3.50;;;17.40;89.90;;;;;;5055672;28;20028;-76
2023/09/24 09:57:35;;;;;;;7.03;3.25;;;17.50;89.00;;;;;;5055781;28;20052;-76
2023/09/24 10:00:05;;;;;;;5.65;3.42;;;17.50;89.50;;;;;;5055653;28;20032;-76
2023/09/24 10:02:32;;;;;;;4.38;2.60;;;17.50;88.30;;;;;;5055651;28;20032;-76
2023/09/24 10:04:59;;;;;;;6.32;2.67;;;17.60;87.80;;;;;;5039225;28;20025;-76
2023/09/24 10:07:25;;;;;;;6.93;3.72;;;17.80;89.50;;;;;;5039456;28;20059;-76
2023/09/24 10:09:51;;;;;;;6.85;2.85;;;17.80;87.40;;;;;;5073202;28;20025;-76
2023/09/24 10:12:37;;;;;;;3.17;1.50;;;17.90;88.70;;;;;;5072979;28;20103;-76
2023/09/24 10:15:23;;;;;;;5.95;2.65;;;18.00;85.90;;;;;;5073132;28;20490;-75
2023/09/24 10:18:08;;;;;;;4.65;1.60;;;18.10;85.60;;;;;;5055706;28;20036;-75
2023/09/24 10:20:49;;;;;;;4.05;2.45;;;18.10;84.20;;;;;;5055378;28;20093;-75
2023/09/24 10:23:30;;;;;;;3.17;1.45;;;18.20;85.80;;;;;;5073099;28;20025;-75
2023/09/24 10:26:02;;;;;;;6.60;3.20;;;18.30;85.80;;;;;;5055601;28;20025;-75
2023/09/24 10:28:50;;;;;;;5.07;3.22;;;18.40;86.00;;;;;;5073129;28;20017;-76
2023/09/24 10:31:22;;;;;;;5.15;2.33;;;18.50;85.30;;;;;;5073027;28;20021;-75
2023/09/24 10:33:59;;;;;;;4.38;1.40;;;18.60;86.50;;;;;;5056376;28;20491;-75
2023/09/24 10:36:30;;;;;;;16.05;6.22;;;18.70;86.00;;;;;;5055413;28;20025;-75
2023/09/24 10:39:13;;;;;;;4.90;2.67;;;18.70;80.80;;;;;;5055172;28;20013;-76
2023/09/24 10:42:11;;;;;;;4.45;1.48;;;18.60;80.50;;;;;;5072925;28;20025;-75
2023/09/24 10:44:39;;;;;;;3.25;1.40;;;18.60;80.40;;;;;;5055308;28;20035;-76
2023/09/24 10:47:23;;;;;;;4.50;1.73;;;18.60;82.80;;;;;;5055551;28;20025;-76
2023/09/24 10:49:50;;;;;;;2.50;1.13;;;18.80;83.30;;;;;;5059200;28;20025;-76
2023/09/24 10:52:15;;;;;;;4.93;1.38;;;18.80;81.60;;;;;;5076504;28;20041;-76
2023/09/24 10:54:45;;;;;;;4.28;1.50;;;18.90;82.70;;;;;;5076696;28;20047;-76
2023/09/24 10:57:25;;;;;;;4.65;1.60;;;19.00;81.60;;;;;;5059114;28;20059;-76
2023/09/24 10:59:51;;;;;;;6.68;2.35;;;19.00;82.80;;;;;;5076674;28;20028;-75
2023/09/24 11:02:17;;;;;;;4.65;1.50;;;19.10;81.40;;;;;;5059067;28;20033;-75
2023/09/24 11:04:43;;;;;;;5.85;2.45;;;19.20;78.70;;;;;;5059131;28;20029;-76
2023/09/24 11:07:10;;;;;;;3.50;1.80;;;19.10;78.90;;;;;;5042301;28;20040;-76
2023/09/24 11:09:36;;;;;;;5.40;2.15;;;19.10;77.70;;;;;;5058828;28;20029;-76
2023/09/24 11:12:08;;;;;;;5.10;1.33;;;19.00;78.30;;;;;;5042126;28;20035;-75
2023/09/24 11:14:33;;;;;;;2.17;1.50;;;19.00;76.50;;;;;;5076606;28;20021;-75
2023/09/24 11:16:59;;;;;;;2.85;1.40;;;19.10;79.30;;;;;;5058581;28;20025;-76
2023/09/24 11:19:48;;;;;;;2.25;1.10;;;19.10;78.50;;;;;;5042193;28;20114;-76
2023/09/24 11:22:26;;;;;;;3.55;2.15;;;19.20;77.80;;;;;;5042584;28;20036;-76
2023/09/24 11:25:04;;;;;;;8.00;3.63;;;19.30;78.10;;;;;;5076186;28;20028;-76
2023/09/24 11:27:30;;;;;;;5.05;1.67;;;19.40;78.30;;;;;;5076160;28;20047;-76
2023/09/24 11:29:57;;;;;;;6.30;2.50;;;19.50;77.90;;;;;;5041992;28;20032;-76
2023/09/24 11:32:25;;;;;;;4.90;1.90;;;19.50;76.50;;;;;;5041801;28;20040;-76
2023/09/24 11:34:50;;;;;;;4.50;1.52;;;19.40;72.90;;;;;;5058269;28;20079;-76
2023/09/24 11:37:16;;;;;;;4.00;1.80;;;19.50;77.20;;;;;;5058407;28;20030;-76
2023/09/24 11:39:43;;;;;;;4.40;2.45;;;19.50;74.70;;;;;;5058249;28;20013;-76
2023/09/24 11:42:17;;;;;;;5.80;2.50;;;19.50;73.40;;;;;;5058435;28;20033;-77
2023/09/24 11:44:48;;;;;;;5.50;2.40;;;19.60;75.40;;;;;;5058303;28;20035;-76
2023/09/24 11:47:14;;;;;;;4.35;1.10;;;19.80;76.10;;;;;;5058298;28;20021;-77
2023/09/24 11:49:39;;;;;;;1.27;0.88;;;19.80;72.80;;;;;;5058135;28;20538;-76
2023/09/24 11:52:09;;;;;;;2.63;1.27;;;19.80;73.70;;;;;;5041117;28;20053;-76
2023/09/24 11:54:35;;;;;;;5.03;1.58;;;19.70;72.50;;;;;;5057986;28;20020;-76
2023/09/24 11:57:00;;;;;;;3.45;1.88;;;19.60;72.90;;;;;;5041339;28;20021;-76
2023/09/24 11:59:30;;;;;;;5.03;1.75;;;19.60;73.50;;;;;;5056729;28;20033;-77
2023/09/24 12:01:56;;;;;;;20.85;12.82;;;19.80;73.30;;;;;;5075553;28;20028;-77
2023/09/24 12:04:22;;;;;;;20.70;9.93;;;19.90;74.30;;;;;;5041352;28;20033;-76
2023/09/24 12:06:47;;;;;;;2.20;1.02;;;20.10;72.70;;;;;;5041286;28;20033;-77
2023/09/24 12:09:13;;;;;;;5.95;3.22;;;20.20;73.40;;;;;;5041195;28;20097;-77
2023/09/24 12:11:39;;;;;;;4.00;1.80;;;20.30;73.00;;;;;;5057723;28;20029;-77
2023/09/24 12:14:04;;;;;;;7.18;4.40;;;20.40;74.30;;;;;;5057617;28;20035;-77
2023/09/24 12:16:30;;;;;;;6.60;2.60;;;20.50;73.50;;;;;;5075086;28;20052;-77
2023/09/24 12:18:55;;;;;;;3.88;1.20;;;20.50;74.00;;;;;;5057671;28;20032;-78
2023/09/24 12:21:21;;;;;;;9.27;4.45;;;20.60;72.90;;;;;;5040866;28;20036;-77
2023/09/24 12:23:47;;;;;;;5.50;3.22;;;20.60;73.60;;;;;;5057594;28;20056;-77
2023/09/24 12:26:12;;;;;;;6.93;5.18;;;20.60;72.00;;;;;;5057494;28;20048;-77
2023/09/24 12:28:38;;;;;;;7.28;3.97;;;20.60;73.00;;;;;;5040755;28;20033;-77
2023/09/24 12:31:04;;;;;;;5.43;3.00;;;20.60;71.60;;;;;;5057247;28;20072;-76
2023/09/24 12:33:29;;;;;;;2.47;0.90;;;20.60;71.50;;;;;;5057080;28;20021;-77
2023/09/24 12:35:55;;;;;;;4.10;0.98;;;20.60;71.10;;;;;;5040714;28;20021;-78
2023/09/24 12:38:20;;;;;;;6.20;2.40;;;20.50;70.70;;;;;;5057173;28;20082;-77
2023/09/24 12:40:47;;;;;;;4.70;1.58;;;20.60;73.50;;;;;;5040497;28;20036;-77
2023/09/24 12:43:13;;;;;;;4.47;1.83;;;20.60;70.60;;;;;;5057070;28;20506;-77
2023/09/24 12:45:38;;;;;;;3.83;1.20;;;20.60;69.70;;;;;;5056939;28;20025;-78
2023/09/24 12:48:04;;;;;;;6.20;3.88;;;20.60;69.60;;;;;;5040387;28;20115;-77